Terminal Aerodrome Forecast
Issued by NWS Burlington, VT

Home | Current Version | Previous Version | Text Only | Print | Product List | Glossary On
Versions: 1 2 3 4 5 6 7 8 9 10 11 12 13 14 15 16 17 18
000
FTUS41 KBTV 210500
TAFBTV
TAF
KBTV 210520Z 2106/2206 18018G32KT P6SM BKN150
     FM211600 18012G20KT P6SM BKN050 BKN120
     FM212100 17007KT 6SM -SHRA BR OVC035
     FM220300 29007KT 6SM -SHRA BR SCT025 OVC050=

USA.gov is the U.S. government's official web portal to all federal, state and local government web resources and services.